Time;durP1;ratioP1;P1;durP2;ratioP2;P2;SDS_P1;SDS_P2;PMS_P1;PMS_P2;Temp;Humidity;BMP_temperature;BMP_pressure;BME280_temperature;BME280_humidity;BME280_pressure;Samples;Min_cycle;Max_cycle;Signal;HPM_P1;HPM_P2
2022/04/02 00:01:39;;;;;;;6.53;5.50;;;;;4.50;94952.00;;;;4936962;29;20445;-72
2022/04/02 00:04:28;;;;;;;6.07;5.13;;;;;4.50;94956.00;;;;4946561;28;20701;-71
2022/04/02 00:07:17;;;;;;;6.50;5.90;;;;;4.50;94955.00;;;;4951788;28;20440;-71
2022/04/02 00:10:07;;;;;;;5.17;4.17;;;;;4.40;94955.00;;;;4948713;28;20236;-72
2022/04/02 00:12:57;;;;;;;5.83;5.23;;;;;4.30;94952.00;;;;4946185;28;20433;-71
2022/04/02 00:15:47;;;;;;;4.90;4.50;;;;;4.40;94945.00;;;;4945628;29;20435;-71
2022/04/02 00:18:36;;;;;;;6.07;5.47;;;;;4.50;94940.00;;;;4944441;29;20508;-71
2022/04/02 00:21:25;;;;;;;5.43;4.77;;;;;4.50;94937.00;;;;4944390;28;20433;-71
2022/04/02 00:24:14;;;;;;;5.30;4.83;;;;;4.40;94929.00;;;;4943259;29;20805;-70
2022/04/02 00:27:04;;;;;;;5.40;4.90;;;;;4.50;94932.00;;;;4942401;29;20945;-71
2022/04/02 00:29:53;;;;;;;5.13;4.63;;;;;4.50;94923.00;;;;4949540;28;20444;-71
2022/04/02 00:32:43;;;;;;;5.90;5.30;;;;;4.50;94928.00;;;;4948501;29;20685;-71
2022/04/02 00:35:32;;;;;;;5.67;5.17;;;;;4.50;94934.00;;;;4944735;28;20476;-72
2022/04/02 00:38:21;;;;;;;5.03;4.50;;;;;4.50;94932.00;;;;4945351;29;20443;-71
2022/04/02 00:41:12;;;;;;;6.67;4.90;;;;;4.40;94924.00;;;;4941403;29;20827;-71
2022/04/02 00:44:07;;;;;;;5.87;5.27;;;;;4.30;94921.00;;;;4936148;29;20468;-71
2022/04/02 00:46:57;;;;;;;5.53;5.03;;;;;4.50;94927.00;;;;4945171;29;20443;-71
2022/04/02 00:49:47;;;;;;;6.07;4.87;;;;;4.30;94924.00;;;;4942719;28;20451;-72
2022/04/02 00:52:36;;;;;;;4.17;3.77;;;;;4.30;94924.00;;;;4949116;29;20439;-72
2022/04/02 00:55:30;;;;;;;5.20;4.73;;;;;4.20;94925.00;;;;4946735;29;21009;-71
2022/04/02 00:58:19;;;;;;;5.57;5.03;;;;;4.00;94923.00;;;;4940561;28;20433;-71
2022/04/02 01:01:08;;;;;;;4.10;3.73;;;;;4.10;94931.00;;;;4946048;29;20440;-70
2022/04/02 01:03:58;;;;;;;6.00;5.30;;;;;4.20;94925.00;;;;4946980;28;20464;-71
2022/04/02 01:06:48;;;;;;;5.50;5.00;;;;;4.30;94922.00;;;;4945729;29;20811;-71
2022/04/02 01:09:37;;;;;;;5.70;5.07;;;;;4.30;94937.00;;;;4950708;28;20455;-71
2022/04/02 01:12:27;;;;;;;4.97;4.43;;;;;4.40;94924.00;;;;4943921;29;20444;-70
2022/04/02 01:15:16;;;;;;;5.97;4.73;;;;;4.40;94923.00;;;;4949606;28;20420;-71
2022/04/02 01:18:05;;;;;;;5.13;4.63;;;;;4.40;94929.00;;;;4946601;29;20449;-71
2022/04/02 01:20:55;;;;;;;4.83;4.33;;;;;4.40;94925.00;;;;4944933;28;20620;-71
2022/04/02 01:23:45;;;;;;;4.30;3.90;;;;;4.40;94927.00;;;;4944842;29;20432;-71
2022/04/02 01:26:34;;;;;;;5.93;5.33;;;;;4.40;94921.00;;;;4940643;29;20432;-70
2022/04/02 01:29:24;;;;;;;5.60;5.00;;;;;4.40;94929.00;;;;4949309;28;20460;-71
2022/04/02 01:32:13;;;;;;;7.13;5.50;;;;;4.30;94925.00;;;;4943071;29;20444;-71
2022/04/02 01:35:02;;;;;;;6.27;5.03;;;;;4.40;94932.00;;;;4943877;29;20993;-71
2022/04/02 01:37:51;;;;;;;5.40;4.90;;;;;4.40;94940.00;;;;4944924;29;20858;-71
2022/04/02 01:40:42;;;;;;;6.23;5.70;;;;;4.40;94935.00;;;;4944712;28;20453;-71
2022/04/02 01:43:31;;;;;;;5.90;5.30;;;;;4.40;94930.00;;;;4943534;29;20436;-71
2022/04/02 01:46:20;;;;;;;7.90;6.20;;;;;4.40;94945.00;;;;4940273;29;20741;-71
2022/04/02 01:49:09;;;;;;;6.17;5.57;;;;;4.30;94941.00;;;;4948852;28;20456;-71
2022/04/02 01:51:58;;;;;;;7.43;5.93;;;;;4.20;94940.00;;;;4947962;28;20817;-71
2022/04/02 01:54:48;;;;;;;7.00;6.17;;;;;4.00;94942.00;;;;4946962;29;20451;-70
2022/04/02 01:57:39;;;;;;;6.20;5.60;;;;;4.20;94948.00;;;;4946992;29;20451;-71
2022/04/02 02:00:28;;;;;;;6.23;5.27;;;;;4.20;94957.00;;;;4946839;28;20981;-71
2022/04/02 02:03:17;;;;;;;7.80;6.40;;;;;4.20;94952.00;;;;4954785;28;20431;-71
2022/04/02 02:06:07;;;;;;;6.67;6.00;;;;;4.10;94953.00;;;;4948617;29;20495;-71
2022/04/02 02:08:56;;;;;;;5.33;4.80;;;;;3.90;94957.00;;;;4943177;28;20450;-71
2022/04/02 02:11:45;;;;;;;6.00;5.47;;;;;3.90;94955.00;;;;4950059;29;20445;-70
2022/04/02 02:14:35;;;;;;;6.70;6.00;;;;;3.90;94955.00;;;;4950182;28;20431;-70
2022/04/02 02:17:24;;;;;;;6.70;5.97;;;;;3.90;94952.00;;;;4948066;29;20427;-71
2022/04/02 02:20:15;;;;;;;6.27;5.67;;;;;3.80;94959.00;;;;4945975;28;20483;-71
2022/04/02 02:23:04;;;;;;;6.90;5.90;;;;;3.70;94958.00;;;;4949042;29;20436;-71
2022/04/02 02:25:53;;;;;;;6.13;5.30;;;;;3.90;94955.00;;;;4947573;29;20483;-71
2022/04/02 02:28:42;;;;;;;5.80;5.00;;;;;3.80;94962.00;;;;4944635;28;20455;-71
2022/04/02 02:31:33;;;;;;;6.40;5.27;;;;;3.60;94967.00;;;;4952555;28;20984;-71
2022/04/02 02:37:30;;;;;;;5.37;4.87;;;;;3.30;94962.00;;;;4943890;29;20435;-72
2022/04/02 02:40:19;;;;;;;6.70;6.10;;;;;3.10;94954.00;;;;4946305;28;20414;-71
2022/04/02 02:43:09;;;;;;;6.33;5.73;;;;;3.30;94965.00;;;;4950546;29;20204;-71
2022/04/02 02:45:59;;;;;;;4.50;4.10;;;;;3.10;94964.00;;;;4941417;28;20475;-71
2022/04/02 02:48:49;;;;;;;5.27;4.77;;;;;3.20;94959.00;;;;4947485;28;20446;-71
2022/04/02 02:51:38;;;;;;;6.70;6.10;;;;;3.20;94965.00;;;;4946496;28;20782;-70
2022/04/02 02:54:27;;;;;;;5.63;5.13;;;;;3.20;94965.00;;;;4951309;29;20204;-71
2022/04/02 02:57:16;;;;;;;4.73;4.23;;;;;3.00;94958.00;;;;4949341;29;20440;-71
2022/04/02 03:00:07;;;;;;;4.90;3.93;;;;;3.20;94970.00;;;;4942577;28;20460;-72
2022/04/02 03:02:56;;;;;;;4.47;4.07;;;;;3.10;94960.00;;;;4951198;28;20447;-71
2022/04/02 03:05:47;;;;;;;5.60;5.00;;;;;3.20;94961.00;;;;4942078;28;20988;-71
2022/04/02 03:08:36;;;;;;;5.00;4.60;;;;;3.30;94965.00;;;;4938670;29;20981;-71
2022/04/02 03:11:25;;;;;;;5.13;4.63;;;;;3.20;94958.00;;;;4947854;29;20432;-71
2022/04/02 03:14:15;;;;;;;4.63;3.93;;;;;3.10;94961.00;;;;4944833;29;20436;-71
2022/04/02 03:17:05;;;;;;;5.13;4.63;;;;;3.10;94960.00;;;;4947504;29;20431;-71
2022/04/02 03:19:54;;;;;;;4.73;4.33;;;;;3.20;94968.00;;;;4947744;28;21000;-71
2022/04/02 03:22:45;;;;;;;5.83;4.97;;;;;3.40;94974.00;;;;4947393;28;20432;-71
2022/04/02 03:25:34;;;;;;;6.33;5.73;;;;;3.40;94972.00;;;;4950211;29;20486;-70
2022/04/02 03:28:24;;;;;;;5.57;5.07;;;;;3.50;94969.00;;;;4940580;28;20429;-71
2022/04/02 03:31:13;;;;;;;5.33;4.83;;;;;3.50;94970.00;;;;4939575;29;20448;-71
2022/04/02 03:34:02;;;;;;;4.63;4.23;;;;;3.20;94977.00;;;;4947350;29;20431;-71
2022/04/02 03:36:51;;;;;;;5.17;4.67;;;;;3.00;94974.00;;;;4945303;29;20428;-71
2022/04/02 03:39:41;;;;;;;7.57;6.40;;;;;3.10;94988.00;;;;4952576;28;20459;-71
2022/04/02 03:42:30;;;;;;;5.27;4.77;;;;;3.00;94993.00;;;;4947582;29;20436;-71
2022/04/02 03:45:20;;;;;;;5.33;4.93;;;;;2.90;94988.00;;;;4946934;28;20993;-71
2022/04/02 03:48:10;;;;;;;5.67;5.00;;;;;3.10;94990.00;;;;4946373;29;20429;-71
2022/04/02 03:50:59;;;;;;;8.53;6.10;;;;;3.10;94986.00;;;;4940971;29;20459;-71
2022/04/02 03:53:48;;;;;;;5.87;5.33;;;;;3.00;94991.00;;;;4950719;29;20449;-71
2022/04/02 03:56:38;;;;;;;6.97;5.17;;;;;2.90;94994.00;;;;4950465;29;20435;-71
2022/04/02 03:59:27;;;;;;;5.30;4.73;;;;;3.00;94998.00;;;;4945879;28;20996;-71
2022/04/02 04:02:16;;;;;;;7.23;6.10;;;;;3.00;95007.00;;;;4947724;28;20444;-71
2022/04/02 04:05:08;;;;;;;7.83;6.87;;;;;3.00;94997.00;;;;4953035;29;20822;-71
2022/04/02 04:07:57;;;;;;;8.17;6.83;;;;;2.90;95012.00;;;;4953501;29;20428;-71
2022/04/02 04:10:46;;;;;;;7.03;6.33;;;;;3.00;95009.00;;;;4953816;28;20984;-71
2022/04/02 04:13:36;;;;;;;11.07;7.13;;;;;2.80;95002.00;;;;4953763;28;20444;-71
2022/04/02 04:16:25;;;;;;;6.80;6.17;;;;;2.90;95013.00;;;;4951729;28;20424;-72
2022/04/02 04:19:14;;;;;;;6.07;5.47;;;;;2.80;95011.00;;;;4953650;28;20472;-71
2022/04/02 04:22:06;;;;;;;8.33;7.53;;;;;2.90;95023.00;;;;4947289;29;20433;-71
2022/04/02 04:24:55;;;;;;;9.63;8.00;;;;;2.90;95009.00;;;;4951798;28;20459;-72
2022/04/02 04:27:44;;;;;;;9.23;7.83;;;;;2.70;95012.00;;;;4946872;29;20440;-71
2022/04/02 04:30:35;;;;;;;8.73;7.23;;;;;2.60;95013.00;;;;4952566;28;20817;-71
2022/04/02 04:33:24;;;;;;;8.57;7.60;;;;;2.70;95034.00;;;;4943200;29;20430;-71
2022/04/02 04:36:13;;;;;;;9.67;7.90;;;;;2.70;95024.00;;;;4947022;29;20436;-72
2022/04/02 04:39:02;;;;;;;10.37;9.37;;;;;2.50;95031.00;;;;4954039;28;20431;-71
2022/04/02 04:41:53;;;;;;;10.40;8.67;;;;;2.60;95027.00;;;;4953291;28;20988;-72
2022/04/02 04:44:43;;;;;;;9.23;8.20;;;;;2.60;95033.00;;;;4946522;28;20455;-72
2022/04/02 04:47:34;;;;;;;10.70;9.27;;;;;2.60;95037.00;;;;4950629;29;20455;-71
2022/04/02 04:50:23;;;;;;;10.17;9.00;;;;;2.70;95021.00;;;;4939781;29;20464;-71
2022/04/02 04:53:12;;;;;;;11.20;10.07;;;;;2.70;95042.00;;;;4941947;29;20906;-71
2022/04/02 04:56:01;;;;;;;12.10;10.03;;;;;2.60;95043.00;;;;4951986;29;20424;-71
2022/04/02 04:58:50;;;;;;;10.77;9.57;;;;;2.60;95034.00;;;;4951624;28;20447;-71
2022/04/02 05:01:39;;;;;;;12.70;9.67;;;;;2.60;95041.00;;;;4943921;29;20813;-71
2022/04/02 05:04:30;;;;;;;13.97;11.30;;;;;2.60;95041.00;;;;4942856;29;20462;-71
2022/04/02 05:07:19;;;;;;;14.07;11.53;;;;;2.60;95051.00;;;;4952639;28;20478;-71
2022/04/02 05:10:09;;;;;;;13.43;10.87;;;;;2.60;95054.00;;;;4953310;28;20463;-70
2022/04/02 05:12:58;;;;;;;12.33;10.70;;;;;2.60;95042.00;;;;4952667;28;20815;-71
2022/04/02 05:15:49;;;;;;;14.27;10.83;;;;;2.60;95053.00;;;;4951677;29;20816;-71
2022/04/02 05:18:39;;;;;;;12.80;10.47;;;;;2.70;95047.00;;;;4950901;29;20454;-71
2022/04/02 05:21:30;;;;;;;14.90;11.27;;;;;2.60;95053.00;;;;4951572;29;20440;-71
2022/04/02 05:24:19;;;;;;;11.37;10.20;;;;;2.60;95054.00;;;;4944651;28;20427;-71
2022/04/02 05:27:09;;;;;;;13.03;10.50;;;;;2.60;95062.00;;;;4941220;29;20794;-71
2022/04/02 05:29:58;;;;;;;14.63;10.23;;;;;2.60;95060.00;;;;4951730;28;20478;-71
2022/04/02 05:32:47;;;;;;;12.80;10.40;;;;;2.70;95058.00;;;;4944113;28;20429;-71
2022/04/02 05:35:36;;;;;;;13.33;11.70;;;;;2.80;95072.00;;;;4949789;29;20440;-71
2022/04/02 05:38:27;;;;;;;13.93;11.97;;;;;2.70;95067.00;;;;4949381;28;20431;-71
2022/04/02 05:41:17;;;;;;;12.70;10.83;;;;;2.80;95068.00;;;;4949301;29;20439;-71
2022/04/02 05:44:06;;;;;;;13.37;10.97;;;;;2.80;95084.00;;;;4952159;28;20442;-71
2022/04/02 05:46:56;;;;;;;16.50;12.00;;;;;2.80;95078.00;;;;4952704;28;20849;-71
2022/04/02 05:50:01;;;;;;;12.37;10.83;;;;;2.90;95077.00;;;;4951561;28;20466;-71
2022/04/02 05:53:00;;;;;;;14.90;11.00;;;;;2.90;95085.00;;;;4950402;29;20428;-71
2022/04/02 05:55:51;;;;;;;12.70;10.77;;;;;2.80;95083.00;;;;4951918;29;20435;-71
2022/04/02 05:58:40;;;;;;;13.37;11.87;;;;;2.80;95081.00;;;;4948322;29;20450;-71
2022/04/02 06:01:29;;;;;;;7.97;7.17;;;;;2.20;95069.00;;;;4946876;28;20462;-70
2022/04/02 06:04:18;;;;;;;8.93;8.07;;;;;2.40;95067.00;;;;4946724;28;20435;-71
2022/04/02 06:07:07;;;;;;;7.37;6.40;;;;;2.50;95078.00;;;;4949009;29;20486;-71
2022/04/02 06:09:56;;;;;;;7.37;6.67;;;;;2.50;95085.00;;;;4950622;28;20440;-71
2022/04/02 06:12:50;;;;;;;8.90;7.93;;;;;2.70;95081.00;;;;4945778;29;20431;-71
2022/04/02 06:15:39;;;;;;;9.30;8.00;;;;;2.80;95088.00;;;;4944646;28;20436;-71
2022/04/02 06:18:28;;;;;;;10.67;7.90;;;;;3.00;95091.00;;;;4946649;28;20444;-71
2022/04/02 06:21:18;;;;;;;10.30;8.50;;;;;3.00;95092.00;;;;4943439;28;20444;-71
2022/04/02 06:24:07;;;;;;;8.27;7.37;;;;;3.00;95082.00;;;;4945511;28;20823;-71
2022/04/02 06:26:56;;;;;;;9.67;8.23;;;;;3.20;95087.00;;;;4943947;28;20478;-71
2022/04/02 06:29:48;;;;;;;9.07;7.93;;;;;3.30;95090.00;;;;4945206;28;20464;-70
2022/04/02 06:32:38;;;;;;;10.97;9.40;;;;;3.40;95087.00;;;;4947861;29;20448;-71
2022/04/02 06:35:27;;;;;;;9.00;8.03;;;;;3.50;95077.00;;;;4940597;29;21013;-69
2022/04/02 06:38:16;;;;;;;8.67;7.67;;;;;3.50;95083.00;;;;4947340;29;20853;-70
2022/04/02 06:41:05;;;;;;;10.43;7.73;;;;;3.20;95085.00;;;;4943403;28;20475;-69
2022/04/02 06:43:54;;;;;;;8.93;8.03;;;;;3.40;95093.00;;;;4952059;29;20446;-70
2022/04/02 06:46:45;;;;;;;8.40;6.90;;;;;3.50;95089.00;;;;4950975;28;20485;-69
2022/04/02 06:49:34;;;;;;;9.77;7.83;;;;;3.10;95085.00;;;;4949790;28;20845;-69
2022/04/02 06:52:23;;;;;;;10.20;8.13;;;;;2.70;95091.00;;;;4948002;29;20440;-69
2022/04/02 06:55:13;;;;;;;10.23;9.13;;;;;3.00;95097.00;;;;4950170;29;20456;-69
2022/04/02 06:58:02;;;;;;;9.93;8.17;;;;;3.30;95088.00;;;;4944234;29;20471;-70
2022/04/02 07:00:51;;;;;;;8.97;7.27;;;;;3.50;95094.00;;;;4955204;28;20685;-69
2022/04/02 07:03:42;;;;;;;10.83;9.07;;;;;3.20;95086.00;;;;4954590;29;20787;-69
2022/04/02 07:06:32;;;;;;;14.20;9.37;;;;;3.30;95092.00;;;;4953888;29;20415;-69
2022/04/02 07:09:21;;;;;;;10.33;8.63;;;;;3.50;95093.00;;;;4954811;28;20980;-69
2022/04/02 07:12:11;;;;;;;11.00;8.77;;;;;3.70;95092.00;;;;4954802;29;20443;-69
2022/04/02 07:15:01;;;;;;;10.17;8.17;;;;;3.90;95099.00;;;;4954620;29;20434;-70
2022/04/02 07:17:50;;;;;;;9.13;7.73;;;;;4.10;95095.00;;;;4953354;29;20416;-70
2022/04/02 07:20:41;;;;;;;7.57;6.80;;;;;4.20;95102.00;;;;4951346;28;20460;-71
2022/04/02 07:23:31;;;;;;;8.07;7.27;;;;;4.30;95112.00;;;;4955008;28;20432;-71
2022/04/02 07:26:20;;;;;;;8.97;8.10;;;;;4.10;95115.00;;;;4954471;29;20808;-71
2022/04/02 07:29:10;;;;;;;8.63;7.10;;;;;4.20;95109.00;;;;4954499;28;20459;-70
2022/04/02 07:31:59;;;;;;;7.37;6.67;;;;;4.20;95106.00;;;;4950691;28;20448;-71
2022/04/02 07:34:48;;;;;;;9.57;7.33;;;;;4.40;95115.00;;;;4946577;28;20441;-71
2022/04/02 07:37:46;;;;;;;7.20;5.70;;;;;4.10;95112.00;;;;4939010;29;20447;-71
2022/04/02 07:40:39;;;;;;;7.70;5.93;;;;;4.30;95113.00;;;;4947681;28;20464;-71
2022/04/02 07:43:44;;;;;;;7.80;6.27;;;;;4.40;95119.00;;;;4950056;29;20428;-71
2022/04/02 07:46:34;;;;;;;7.33;5.60;;;;;4.40;95117.00;;;;4943114;29;20447;-70
2022/04/02 07:49:27;;;;;;;6.50;5.83;;;;;4.70;95136.00;;;;4949607;28;20467;-70
2022/04/02 07:52:16;;;;;;;7.33;5.00;;;;;4.60;95126.00;;;;4943422;28;20444;-70
2022/04/02 07:55:10;;;;;;;8.63;6.77;;;;;4.50;95125.00;;;;4948624;29;20432;-70
2022/04/02 07:58:03;;;;;;;5.30;4.60;;;;;4.60;95125.00;;;;4951193;29;20957;-72
2022/04/02 08:00:56;;;;;;;8.47;6.33;;;;;4.50;95124.00;;;;4950395;28;20467;-71
2022/04/02 08:03:46;;;;;;;5.27;4.83;;;;;4.10;95134.00;;;;4945775;29;20432;-71
2022/04/02 08:06:36;;;;;;;6.90;5.47;;;;;4.40;95122.00;;;;4944926;29;20440;-72
2022/04/02 08:09:27;;;;;;;5.63;5.07;;;;;4.60;95130.00;;;;4951513;28;20455;-72
2022/04/02 08:12:17;;;;;;;5.07;4.57;;;;;4.30;95137.00;;;;4947002;29;20446;-71
2022/04/02 08:15:09;;;;;;;4.53;3.93;;;;;4.50;95135.00;;;;4946599;29;20420;-72
2022/04/02 08:18:01;;;;;;;5.53;4.50;;;;;4.40;95136.00;;;;4945882;29;20439;-72
2022/04/02 08:20:52;;;;;;;5.10;4.60;;;;;4.50;95137.00;;;;4946467;28;20475;-72
2022/04/02 08:23:41;;;;;;;5.17;4.67;;;;;4.50;95151.00;;;;4948185;29;20442;-72
2022/04/02 08:26:38;;;;;;;5.90;5.30;;;;;4.60;95160.00;;;;4949123;29;20436;-72
2022/04/02 08:29:42;;;;;;;6.07;5.57;;;;;4.80;95161.00;;;;4951463;28;20458;-72
2022/04/02 08:32:43;;;;;;;7.00;5.53;;;;;4.70;95168.00;;;;4948056;29;20439;-72
2022/04/02 08:35:35;;;;;;;4.37;3.97;;;;;4.00;95170.00;;;;4947058;29;20452;-72
2022/04/02 08:38:34;;;;;;;5.27;4.70;;;;;4.30;95170.00;;;;4949486;29;20222;-72
2022/04/02 08:41:48;;;;;;;8.30;4.53;;;;;4.60;95185.00;;;;4949988;28;20235;-71
2022/04/02 08:45:09;;;;;;;6.17;4.83;;;;;4.10;95173.00;;;;4944956;29;20460;-71
2022/04/02 08:48:21;;;;;;;7.77;6.30;;;;;3.50;95192.00;;;;4951720;29;20228;-72
2022/04/02 08:51:21;;;;;;;7.43;6.53;;;;;3.40;95180.00;;;;4953132;28;20412;-72
2022/04/02 08:54:23;;;;;;;18.23;8.13;;;;;2.90;95184.00;;;;4952462;28;20805;-72
2022/04/02 08:57:29;;;;;;;8.43;7.20;;;;;2.60;95188.00;;;;4952276;28;20787;-72
2022/04/02 09:00:23;;;;;;;8.83;7.07;;;;;2.50;95188.00;;;;4951199;28;20451;-72
2022/04/02 09:03:48;;;;;;;11.43;7.93;;;;;2.70;95189.00;;;;4949791;28;20432;-73
2022/04/02 09:07:08;;;;;;;11.70;9.07;;;;;3.00;95201.00;;;;4949928;29;20432;-72
2022/04/02 09:10:40;;;;;;;15.43;9.83;;;;;3.30;95204.00;;;;4950824;28;20451;-72
2022/04/02 09:13:59;;;;;;;13.80;9.80;;;;;3.40;95214.00;;;;4940701;29;20444;-73
2022/04/02 09:17:02;;;;;;;10.23;7.70;;;;;3.40;95216.00;;;;4950993;28;20424;-73
2022/04/02 09:19:53;;;;;;;11.30;9.13;;;;;3.30;95222.00;;;;4949992;28;20466;-72
2022/04/02 09:22:51;;;;;;;12.50;10.23;;;;;2.90;95218.00;;;;4948046;29;20946;-72
2022/04/02 09:26:13;;;;;;;9.53;7.47;;;;;2.70;95219.00;;;;4947519;29;20502;-71
2022/04/02 09:29:15;;;;;;;10.93;7.37;;;;;2.50;95224.00;;;;4945838;28;20846;-70
2022/04/02 09:32:36;;;;;;;11.67;9.53;;;;;2.50;95232.00;;;;4947246;29;20451;-73
2022/04/02 09:35:41;;;;;;;10.03;7.73;;;;;2.30;95227.00;;;;4950268;29;20420;-72
2022/04/02 09:39:05;;;;;;;11.40;8.80;;;;;2.40;95240.00;;;;4946898;29;20963;-72
2022/04/02 09:42:03;;;;;;;13.30;8.93;;;;;2.70;95233.00;;;;4951120;29;20432;-69
2022/04/02 09:45:00;;;;;;;4.07;3.67;;;;;2.40;95234.00;;;;4951162;29;20432;-72
2022/04/02 09:48:17;;;;;;;12.20;9.53;;;;;2.20;95243.00;;;;4949825;29;20436;-69
2022/04/02 09:51:08;;;;;;;7.23;4.93;;;;;2.30;95244.00;;;;4951098;29;20809;-72
2022/04/02 09:54:03;;;;;;;12.63;10.37;;;;;2.50;95259.00;;;;4950095;29;20420;-71
2022/04/02 09:56:59;;;;;;;12.40;9.87;;;;;2.60;95255.00;;;;4951768;28;20416;-72
2022/04/02 10:00:01;;;;;;;9.97;7.10;;;;;2.20;95251.00;;;;4950447;28;20510;-71
2022/04/02 10:03:05;;;;;;;13.77;10.57;;;;;2.40;95258.00;;;;4951117;28;20435;-70
2022/04/02 10:06:13;;;;;;;9.63;7.97;;;;;2.40;95255.00;;;;4948329;29;20550;-71
2022/04/02 10:09:10;;;;;;;10.60;9.20;;;;;2.30;95268.00;;;;4949425;28;21019;-73
2022/04/02 10:12:00;;;;;;;13.87;11.13;;;;;2.60;95274.00;;;;4948756;29;20462;-73
2022/04/02 10:14:50;;;;;;;15.20;10.80;;;;;2.80;95278.00;;;;4949131;28;20443;-73
2022/04/02 10:17:41;;;;;;;13.23;10.87;;;;;2.70;95278.00;;;;4952379;28;20416;-73
2022/04/02 10:20:31;;;;;;;16.40;10.63;;;;;2.80;95290.00;;;;4948944;28;20451;-73
2022/04/02 10:23:23;;;;;;;15.87;11.53;;;;;2.70;95286.00;;;;4948485;28;20987;-73
2022/04/02 10:26:17;;;;;;;14.43;11.40;;;;;2.60;95294.00;;;;4946353;29;20837;-72
2022/04/02 10:29:11;;;;;;;14.37;10.73;;;;;3.00;95288.00;;;;4946744;28;20467;-73
2022/04/02 10:32:02;;;;;;;17.30;11.23;;;;;3.00;95284.00;;;;4954530;29;20423;-73
2022/04/02 10:34:58;;;;;;;14.40;10.93;;;;;3.20;95288.00;;;;4953587;28;20440;-73
2022/04/02 10:38:08;;;;;;;15.50;11.70;;;;;3.20;95298.00;;;;4951255;29;20817;-73
2022/04/02 10:40:59;;;;;;;14.10;10.57;;;;;3.40;95298.00;;;;4952860;28;20838;-73
2022/04/02 10:43:52;;;;;;;14.73;11.80;;;;;3.60;95296.00;;;;4947500;28;20450;-73
2022/04/02 10:46:46;;;;;;;16.50;12.67;;;;;3.80;95311.00;;;;4952635;28;20436;-73
2022/04/02 10:49:36;;;;;;;16.40;12.97;;;;;3.80;95303.00;;;;4952484;28;20487;-72
2022/04/02 10:52:27;;;;;;;14.47;11.00;;;;;3.60;95296.00;;;;4954392;28;20821;-72
2022/04/02 10:55:19;;;;;;;12.10;10.53;;;;;3.40;95319.00;;;;4954034;28;20439;-72
2022/04/02 10:58:13;;;;;;;13.40;11.10;;;;;3.40;95322.00;;;;4950717;28;21250;-72
2022/04/02 11:01:03;;;;;;;12.13;9.73;;;;;3.40;95322.00;;;;4950310;28;20464;-72
2022/04/02 11:03:55;;;;;;;12.97;9.73;;;;;3.50;95321.00;;;;4950257;29;20933;-72
2022/04/02 11:06:47;;;;;;;13.00;11.00;;;;;3.40;95321.00;;;;4948181;29;20451;-72
2022/04/02 11:09:39;;;;;;;13.20;10.87;;;;;3.40;95321.00;;;;4953322;28;20468;-72
2022/04/02 11:12:33;;;;;;;14.63;10.90;;;;;3.50;95325.00;;;;4953141;28;20427;-72
2022/04/02 11:15:27;;;;;;;13.87;11.40;;;;;3.30;95332.00;;;;4952029;28;20439;-72
2022/04/02 11:18:19;;;;;;;12.70;10.80;;;;;3.50;95334.00;;;;4950620;29;20435;-72
2022/04/02 11:21:10;;;;;;;12.10;9.33;;;;;3.50;95333.00;;;;4951944;28;20459;-72
2022/04/02 11:24:02;;;;;;;13.23;9.70;;;;;3.60;95327.00;;;;4948540;28;20431;-72
2022/04/02 11:26:52;;;;;;;13.03;10.43;;;;;3.70;95330.00;;;;4952272;28;20436;-71
2022/04/02 11:29:41;;;;;;;13.87;10.97;;;;;3.90;95332.00;;;;4950287;28;20487;-72
2022/04/02 11:32:40;;;;;;;16.03;12.07;;;;;3.80;95334.00;;;;4951601;29;20755;-71
2022/04/02 11:35:31;;;;;;;13.63;10.50;;;;;3.70;95335.00;;;;4953916;28;20470;-71
2022/04/02 11:38:31;;;;;;;14.07;10.50;;;;;3.80;95342.00;;;;4949777;29;20811;-72
2022/04/02 11:41:22;;;;;;;13.47;10.50;;;;;3.90;95345.00;;;;4951701;28;20776;-71
2022/04/02 11:44:13;;;;;;;12.03;10.40;;;;;4.10;95348.00;;;;4949340;29;20446;-71
2022/04/02 11:47:03;;;;;;;13.90;11.10;;;;;4.30;95353.00;;;;4950087;28;20813;-71
2022/04/02 11:49:55;;;;;;;11.43;8.57;;;;;3.90;95349.00;;;;4949162;28;20472;-71
2022/04/02 11:52:51;;;;;;;8.63;7.20;;;;;3.30;95345.00;;;;4947640;29;20487;-71
2022/04/02 11:55:41;;;;;;;7.27;6.43;;;;;3.30;95344.00;;;;4949125;28;20800;-71
2022/04/02 11:58:40;;;;;;;8.50;6.53;;;;;3.00;95348.00;;;;4946030;29;20444;-71
2022/04/02 12:01:41;;;;;;;8.57;6.93;;;;;3.30;95340.00;;;;4946752;28;20980;-71
2022/04/02 12:04:31;;;;;;;7.87;6.93;;;;;3.70;95350.00;;;;4947825;29;20805;-71
2022/04/02 12:07:22;;;;;;;8.00;6.90;;;;;4.00;95344.00;;;;4948169;28;20664;-71
2022/04/02 12:10:14;;;;;;;11.87;10.43;;;;;4.30;95354.00;;;;4947631;28;21000;-71
2022/04/02 12:13:08;;;;;;;20.43;18.43;;;;;4.40;95364.00;;;;4948048;28;20447;-71
2022/04/02 12:16:08;;;;;;;11.33;10.13;;;;;4.20;95368.00;;;;4949684;29;20431;-71
2022/04/02 12:18:58;;;;;;;12.20;9.77;;;;;4.00;95346.00;;;;4947729;28;20963;-71
2022/04/02 12:21:48;;;;;;;9.40;8.43;;;;;4.50;95358.00;;;;4944303;29;20432;-71
2022/04/02 12:24:41;;;;;;;12.53;10.73;;;;;4.60;95363.00;;;;4949247;28;20200;-71
2022/04/02 12:27:33;;;;;;;13.10;10.50;;;;;4.80;95372.00;;;;4947069;28;20811;-71
2022/04/02 12:30:24;;;;;;;12.53;9.93;;;;;4.70;95368.00;;;;4944009;28;20476;-71
2022/04/02 12:33:15;;;;;;;10.20;8.90;;;;;4.80;95368.00;;;;4947400;29;20442;-71
2022/04/02 12:36:07;;;;;;;9.70;8.60;;;;;4.70;95375.00;;;;4947871;29;20208;-71
2022/04/02 12:39:01;;;;;;;13.40;9.77;;;;;4.80;95369.00;;;;4946327;28;20220;-71
2022/04/02 12:41:52;;;;;;;8.73;7.83;;;;;4.80;95367.00;;;;4947560;29;20214;-71
2022/04/02 12:44:41;;;;;;;13.27;11.97;;;;;4.80;95375.00;;;;4946564;29;20220;-71
2022/04/02 12:47:31;;;;;;;16.77;11.67;;;;;4.90;95374.00;;;;4948133;28;20234;-71
2022/04/02 12:50:20;;;;;;;12.37;11.10;;;;;4.90;95375.00;;;;4946939;28;20483;-71
2022/04/02 12:53:10;;;;;;;9.97;8.93;;;;;5.10;95392.00;;;;4948145;29;20212;-71
2022/04/02 12:56:00;;;;;;;9.87;8.50;;;;;5.00;95378.00;;;;4946149;29;20690;-71
2022/04/02 12:58:53;;;;;;;10.90;9.27;;;;;5.00;95391.00;;;;4948790;28;20212;-71
2022/04/02 13:01:43;;;;;;;9.90;8.23;;;;;5.10;95378.00;;;;4949164;29;20696;-71
2022/04/02 13:04:32;;;;;;;12.20;8.50;;;;;5.00;95393.00;;;;4946353;29;20223;-71
2022/04/02 13:07:22;;;;;;;10.53;8.20;;;;;4.80;95387.00;;;;4943806;29;20216;-71
2022/04/02 13:10:13;;;;;;;8.17;7.30;;;;;4.60;95388.00;;;;4944329;28;20236;-71
2022/04/02 13:13:05;;;;;;;8.77;6.30;;;;;4.70;95398.00;;;;4945891;29;20200;-71
2022/04/02 13:15:56;;;;;;;6.97;6.27;;;;;4.90;95397.00;;;;4944101;29;20212;-71
2022/04/02 13:22:04;;;;;;;8.80;7.63;;;;;5.20;95401.00;;;;4944201;29;20223;-71
2022/04/02 13:24:55;;;;;;;6.13;5.53;;;;;4.80;95399.00;;;;4943648;29;20212;-71
2022/04/02 13:28:20;;;;;;;7.90;6.33;;;;;5.10;95403.00;;;;4943290;28;20368;-71
2022/04/02 13:31:10;;;;;;;7.83;6.90;;;;;5.30;95404.00;;;;4943255;29;20232;-71
2022/04/02 13:34:17;;;;;;;8.80;7.43;;;;;5.40;95403.00;;;;4945579;28;20211;-71
2022/04/02 13:37:19;;;;;;;8.30;6.50;;;;;5.30;95406.00;;;;4942428;29;20203;-71
2022/04/02 13:40:18;;;;;;;8.30;6.63;;;;;5.30;95400.00;;;;4944803;28;20235;-71
2022/04/02 13:43:08;;;;;;;6.00;5.40;;;;;5.30;95405.00;;;;4944948;29;20216;-71
2022/04/02 13:46:00;;;;;;;6.90;6.23;;;;;5.20;95399.00;;;;4944985;29;20219;-71
2022/04/02 13:48:56;;;;;;;7.53;6.77;;;;;5.40;95403.00;;;;4946436;28;20208;-71
2022/04/02 13:51:49;;;;;;;6.63;6.00;;;;;5.60;95408.00;;;;4946461;29;20231;-71
2022/04/02 13:54:47;;;;;;;8.40;7.43;;;;;5.50;95399.00;;;;4946790;28;20196;-71
2022/04/02 13:57:37;;;;;;;9.83;6.20;;;;;5.40;95410.00;;;;4945703;29;20208;-70
2022/04/02 14:00:28;;;;;;;7.03;6.23;;;;;5.20;95403.00;;;;4945259;28;20227;-70
2022/04/02 14:03:19;;;;;;;8.47;7.07;;;;;5.20;95414.00;;;;4943975;29;20219;-70
2022/04/02 14:06:11;;;;;;;7.67;5.70;;;;;5.30;95420.00;;;;4944806;29;20203;-70
2022/04/02 14:09:00;;;;;;;6.27;5.67;;;;;5.20;95417.00;;;;4943863;29;20204;-70
2022/04/02 14:11:51;;;;;;;6.97;6.27;;;;;5.30;95419.00;;;;4944816;29;20240;-70
2022/04/02 14:15:00;;;;;;;7.70;6.17;;;;;5.20;95418.00;;;;4946218;28;20211;-70
2022/04/02 14:17:53;;;;;;;5.37;4.90;;;;;5.30;95421.00;;;;4945494;29;20758;-70
2022/04/02 14:20:42;;;;;;;6.20;5.20;;;;;5.10;95420.00;;;;4944505;28;20223;-70
2022/04/02 14:23:36;;;;;;;7.50;5.27;;;;;5.10;95426.00;;;;4945908;29;20688;-69
2022/04/02 14:27:01;;;;;;;7.27;5.53;;;;;4.60;95430.00;;;;4940504;29;20219;-70
2022/04/02 14:30:06;;;;;;;6.30;5.40;;;;;4.80;95425.00;;;;4943930;28;20227;-70
2022/04/02 14:33:27;;;;;;;7.13;6.17;;;;;4.90;95437.00;;;;4943554;29;20709;-69
2022/04/02 14:36:55;;;;;;;10.33;6.43;;;;;4.80;95436.00;;;;4946789;29;20212;-69